sensor_id;sensor_type;location;lat;lon;timestamp;temperature;humidity
22379;DHT22;11357;49.990;7.370;2023-09-19T00:01:12;19.70;90.40
22379;DHT22;11357;49.990;7.370;2023-09-19T00:03:40;19.70;90.40
22379;DHT22;11357;49.990;7.370;2023-09-19T00:06:08;19.70;90.50
22379;DHT22;11357;49.990;7.370;2023-09-19T00:08:36;19.80;90.50
22379;DHT22;11357;49.990;7.370;2023-09-19T00:11:02;19.80;90.40
22379;DHT22;11357;49.990;7.370;2023-09-19T00:13:29;19.80;90.40
22379;DHT22;11357;49.990;7.370;2023-09-19T00:15:56;19.80;90.40
22379;DHT22;11357;49.990;7.370;2023-09-19T00:18:24;19.70;90.30
22379;DHT22;11357;49.990;7.370;2023-09-19T00:20:57;19.60;90.40
22379;DHT22;11357;49.990;7.370;2023-09-19T00:23:23;19.50;90.50
22379;DHT22;11357;49.990;7.370;2023-09-19T00:25:50;19.50;90.40
22379;DHT22;11357;49.990;7.370;2023-09-19T00:28:17;19.50;90.40
22379;DHT22;11357;49.990;7.370;2023-09-19T00:30:44;19.50;90.40
22379;DHT22;11357;49.990;7.370;2023-09-19T00:33:10;19.40;90.40
22379;DHT22;11357;49.990;7.370;2023-09-19T00:35:37;19.30;90.50
22379;DHT22;11357;49.990;7.370;2023-09-19T00:38:03;19.30;90.50
22379;DHT22;11357;49.990;7.370;2023-09-19T00:40:29;19.30;90.50
22379;DHT22;11357;49.990;7.370;2023-09-19T00:42:58;19.20;90.50
22379;DHT22;11357;49.990;7.370;2023-09-19T00:45:25;19.20;90.50
22379;DHT22;11357;49.990;7.370;2023-09-19T00:47:51;19.20;90.50
22379;DHT22;11357;49.990;7.370;2023-09-19T00:50:18;19.20;90.40
22379;DHT22;11357;49.990;7.370;2023-09-19T00:52:46;19.20;90.40
22379;DHT22;11357;49.990;7.370;2023-09-19T00:55:14;19.10;90.30
22379;DHT22;11357;49.990;7.370;2023-09-19T00:57:41;19.10;90.30
22379;DHT22;11357;49.990;7.370;2023-09-19T01:00:08;19.00;90.30
22379;DHT22;11357;49.990;7.370;2023-09-19T01:02:37;18.90;90.30
22379;DHT22;11357;49.990;7.370;2023-09-19T01:05:03;18.80;90.30
22379;DHT22;11357;49.990;7.370;2023-09-19T01:07:32;18.80;90.40
22379;DHT22;11357;49.990;7.370;2023-09-19T01:10:05;18.70;90.40
22379;DHT22;11357;49.990;7.370;2023-09-19T01:24:40;18.50;90.40
22379;DHT22;11357;49.990;7.370;2023-09-19T01:29:48;18.50;90.30
22379;DHT22;11357;49.990;7.370;2023-09-19T01:32:19;18.40;90.50
22379;DHT22;11357;49.990;7.370;2023-09-19T01:34:52;18.40;90.20
22379;DHT22;11357;49.990;7.370;2023-09-19T01:37:20;18.40;90.20
22379;DHT22;11357;49.990;7.370;2023-09-19T01:39:57;18.40;90.20
22379;DHT22;11357;49.990;7.370;2023-09-19T01:42:44;18.30;90.10
22379;DHT22;11357;49.990;7.370;2023-09-19T01:48:46;18.40;90.10
22379;DHT22;11357;49.990;7.370;2023-09-19T01:54:03;18.40;90.00
22379;DHT22;11357;49.990;7.370;2023-09-19T01:56:53;18.30;90.00
22379;DHT22;11357;49.990;7.370;2023-09-19T01:59:25;18.20;90.00
22379;DHT22;11357;49.990;7.370;2023-09-19T02:01:53;18.20;90.00
22379;DHT22;11357;49.990;7.370;2023-09-19T02:04:20;18.20;90.00
22379;DHT22;11357;49.990;7.370;2023-09-19T02:06:45;18.20;90.10
22379;DHT22;11357;49.990;7.370;2023-09-19T02:09:14;18.10;90.20
22379;DHT22;11357;49.990;7.370;2023-09-19T02:11:40;18.10;90.20
22379;DHT22;11357;49.990;7.370;2023-09-19T02:14:06;18.00;90.30
22379;DHT22;11357;49.990;7.370;2023-09-19T02:16:37;18.00;90.30
22379;DHT22;11357;49.990;7.370;2023-09-19T02:19:02;18.00;90.50
22379;DHT22;11357;49.990;7.370;2023-09-19T02:21:31;17.90;90.50
22379;DHT22;11357;49.990;7.370;2023-09-19T02:23:58;17.90;90.60
22379;DHT22;11357;49.990;7.370;2023-09-19T02:26:24;17.90;90.60
22379;DHT22;11357;49.990;7.370;2023-09-19T02:28:50;17.90;90.70
22379;DHT22;11357;49.990;7.370;2023-09-19T02:31:16;17.90;90.80
22379;DHT22;11357;49.990;7.370;2023-09-19T02:33:42;17.80;90.80
22379;DHT22;11357;49.990;7.370;2023-09-19T02:36:08;17.90;90.70
22379;DHT22;11357;49.990;7.370;2023-09-19T02:38:34;17.80;90.70
22379;DHT22;11357;49.990;7.370;2023-09-19T02:41:00;17.80;90.70
22379;DHT22;11357;49.990;7.370;2023-09-19T02:43:27;17.80;90.80
22379;DHT22;11357;49.990;7.370;2023-09-19T02:45:53;17.80;90.80
22379;DHT22;11357;49.990;7.370;2023-09-19T02:48:19;17.80;90.80
22379;DHT22;11357;49.990;7.370;2023-09-19T02:50:46;17.70;90.90
22379;DHT22;11357;49.990;7.370;2023-09-19T02:53:14;17.80;90.90
22379;DHT22;11357;49.990;7.370;2023-09-19T02:55:40;17.80;90.90
22379;DHT22;11357;49.990;7.370;2023-09-19T02:58:06;17.80;90.90
22379;DHT22;11357;49.990;7.370;2023-09-19T03:00:40;17.80;90.90
22379;DHT22;11357;49.990;7.370;2023-09-19T03:03:08;17.70;90.90
22379;DHT22;11357;49.990;7.370;2023-09-19T03:05:34;17.80;91.00
22379;DHT22;11357;49.990;7.370;2023-09-19T03:08:01;17.80;91.00
22379;DHT22;11357;49.990;7.370;2023-09-19T03:10:27;17.70;91.10
22379;DHT22;11357;49.990;7.370;2023-09-19T03:12:53;17.70;91.20
22379;DHT22;11357;49.990;7.370;2023-09-19T03:15:19;17.80;91.20
22379;DHT22;11357;49.990;7.370;2023-09-19T03:17:47;17.80;91.20
22379;DHT22;11357;49.990;7.370;2023-09-19T03:20:13;17.80;91.30
22379;DHT22;11357;49.990;7.370;2023-09-19T03:22:39;17.80;91.30
22379;DHT22;11357;49.990;7.370;2023-09-19T03:25:06;17.80;91.30
22379;DHT22;11357;49.990;7.370;2023-09-19T03:27:36;17.80;91.30
22379;DHT22;11357;49.990;7.370;2023-09-19T03:30:03;17.80;91.40
22379;DHT22;11357;49.990;7.370;2023-09-19T03:32:37;17.80;91.40
22379;DHT22;11357;49.990;7.370;2023-09-19T03:35:03;17.90;91.40
22379;DHT22;11357;49.990;7.370;2023-09-19T03:37:31;17.90;91.30
22379;DHT22;11357;49.990;7.370;2023-09-19T03:39:59;17.90;91.30
22379;DHT22;11357;49.990;7.370;2023-09-19T03:42:24;17.80;91.30
22379;DHT22;11357;49.990;7.370;2023-09-19T03:44:52;17.80;91.30
22379;DHT22;11357;49.990;7.370;2023-09-19T03:47:18;17.80;91.30
22379;DHT22;11357;49.990;7.370;2023-09-19T03:49:44;17.80;91.30
22379;DHT22;11357;49.990;7.370;2023-09-19T03:52:10;17.70;91.30
22379;DHT22;11357;49.990;7.370;2023-09-19T03:54:36;17.70;91.40
22379;DHT22;11357;49.990;7.370;2023-09-19T03:57:02;17.70;91.40
22379;DHT22;11357;49.990;7.370;2023-09-19T03:59:28;17.70;91.40
22379;DHT22;11357;49.990;7.370;2023-09-19T04:01:54;17.70;91.40
22379;DHT22;11357;49.990;7.370;2023-09-19T04:04:22;17.80;91.40
22379;DHT22;11357;49.990;7.370;2023-09-19T04:06:50;17.70;91.40
22379;DHT22;11357;49.990;7.370;2023-09-19T04:09:16;17.70;91.40
22379;DHT22;11357;49.990;7.370;2023-09-19T04:11:42;17.70;91.40
22379;DHT22;11357;49.990;7.370;2023-09-19T04:14:07;17.70;91.40
22379;DHT22;11357;49.990;7.370;2023-09-19T04:16:33;17.70;91.50
22379;DHT22;11357;49.990;7.370;2023-09-19T04:18:58;17.70;91.40
22379;DHT22;11357;49.990;7.370;2023-09-19T04:21:24;17.70;91.40
22379;DHT22;11357;49.990;7.370;2023-09-19T04:23:50;17.70;91.40
22379;DHT22;11357;49.990;7.370;2023-09-19T04:26:16;17.70;91.40
22379;DHT22;11357;49.990;7.370;2023-09-19T04:28:42;17.70;91.30
22379;DHT22;11357;49.990;7.370;2023-09-19T04:31:09;17.70;91.20
22379;DHT22;11357;49.990;7.370;2023-09-19T04:33:37;17.70;91.20
22379;DHT22;11357;49.990;7.370;2023-09-19T04:36:03;17.70;91.20
22379;DHT22;11357;49.990;7.370;2023-09-19T04:38:33;17.70;91.20
22379;DHT22;11357;49.990;7.370;2023-09-19T04:40:59;17.70;91.10
22379;DHT22;11357;49.990;7.370;2023-09-19T04:43:26;17.60;91.00
22379;DHT22;11357;49.990;7.370;2023-09-19T04:45:52;17.60;91.10
22379;DHT22;11357;49.990;7.370;2023-09-19T04:48:22;17.60;91.10
22379;DHT22;11357;49.990;7.370;2023-09-19T04:50:49;17.60;91.10
22379;DHT22;11357;49.990;7.370;2023-09-19T04:53:16;17.60;91.10
22379;DHT22;11357;49.990;7.370;2023-09-19T04:55:43;17.50;91.10
22379;DHT22;11357;49.990;7.370;2023-09-19T04:58:08;17.60;91.20
22379;DHT22;11357;49.990;7.370;2023-09-19T05:00:34;17.60;91.20
22379;DHT22;11357;49.990;7.370;2023-09-19T05:03:00;17.50;91.20
22379;DHT22;11357;49.990;7.370;2023-09-19T05:05:26;17.50;91.20
22379;DHT22;11357;49.990;7.370;2023-09-19T05:07:52;17.60;91.20
22379;DHT22;11357;49.990;7.370;2023-09-19T05:10:19;17.60;91.20
22379;DHT22;11357;49.990;7.370;2023-09-19T05:12:45;17.60;91.10
22379;DHT22;11357;49.990;7.370;2023-09-19T05:15:13;17.60;91.10
22379;DHT22;11357;49.990;7.370;2023-09-19T05:17:47;17.60;91.10
22379;DHT22;11357;49.990;7.370;2023-09-19T05:20:13;17.60;91.00
22379;DHT22;11357;49.990;7.370;2023-09-19T05:22:57;17.60;91.00
22379;DHT22;11357;49.990;7.370;2023-09-19T05:25:23;17.60;91.00
22379;DHT22;11357;49.990;7.370;2023-09-19T05:27:53;17.60;91.00
22379;DHT22;11357;49.990;7.370;2023-09-19T05:30:19;17.60;91.00
22379;DHT22;11357;49.990;7.370;2023-09-19T05:32:45;17.60;91.00
22379;DHT22;11357;49.990;7.370;2023-09-19T05:35:11;17.60;90.90
22379;DHT22;11357;49.990;7.370;2023-09-19T05:37:38;17.60;90.90
22379;DHT22;11357;49.990;7.370;2023-09-19T05:40:04;17.60;90.90
22379;DHT22;11357;49.990;7.370;2023-09-19T05:42:35;17.50;90.90
22379;DHT22;11357;49.990;7.370;2023-09-19T05:45:00;17.60;91.20
22379;DHT22;11357;49.990;7.370;2023-09-19T05:47:26;17.60;90.90
22379;DHT22;11357;49.990;7.370;2023-09-19T05:49:52;17.60;90.90
22379;DHT22;11357;49.990;7.370;2023-09-19T05:52:17;17.60;90.70
22379;DHT22;11357;49.990;7.370;2023-09-19T05:54:43;17.60;90.80
22379;DHT22;11357;49.990;7.370;2023-09-19T05:57:09;17.60;90.70
22379;DHT22;11357;49.990;7.370;2023-09-19T05:59:37;17.60;90.70
22379;DHT22;11357;49.990;7.370;2023-09-19T06:02:05;17.60;90.70
22379;DHT22;11357;49.990;7.370;2023-09-19T06:04:32;17.60;90.70
22379;DHT22;11357;49.990;7.370;2023-09-19T06:06:58;17.60;90.60
22379;DHT22;11357;49.990;7.370;2023-09-19T06:09:23;17.60;90.50
22379;DHT22;11357;49.990;7.370;2023-09-19T06:11:49;17.50;90.50
22379;DHT22;11357;49.990;7.370;2023-09-19T06:14:15;17.50;90.50
22379;DHT22;11357;49.990;7.370;2023-09-19T06:16:43;17.60;90.50
22379;DHT22;11357;49.990;7.370;2023-09-19T06:19:09;17.60;90.30
22379;DHT22;11357;49.990;7.370;2023-09-19T06:21:36;17.50;90.30
22379;DHT22;11357;49.990;7.370;2023-09-19T06:24:02;17.50;90.30
22379;DHT22;11357;49.990;7.370;2023-09-19T06:26:28;17.50;90.30
22379;DHT22;11357;49.990;7.370;2023-09-19T06:28:55;17.50;90.30
22379;DHT22;11357;49.990;7.370;2023-09-19T06:31:21;17.50;90.20
22379;DHT22;11357;49.990;7.370;2023-09-19T06:33:51;17.60;90.30
22379;DHT22;11357;49.990;7.370;2023-09-19T06:36:17;17.60;90.20
22379;DHT22;11357;49.990;7.370;2023-09-19T06:38:43;17.60;90.20
22379;DHT22;11357;49.990;7.370;2023-09-19T06:41:08;17.70;90.20
22379;DHT22;11357;49.990;7.370;2023-09-19T06:43:34;17.80;90.20
22379;DHT22;11357;49.990;7.370;2023-09-19T06:46:01;17.90;90.20
22379;DHT22;11357;49.990;7.370;2023-09-19T06:48:27;17.90;90.10
22379;DHT22;11357;49.990;7.370;2023-09-19T06:50:55;18.00;90.10
22379;DHT22;11357;49.990;7.370;2023-09-19T06:53:20;18.10;90.00
22379;DHT22;11357;49.990;7.370;2023-09-19T06:55:52;18.10;90.00
22379;DHT22;11357;49.990;7.370;2023-09-19T06:58:18;18.20;89.90
22379;DHT22;11357;49.990;7.370;2023-09-19T07:00:45;18.20;89.70
22379;DHT22;11357;49.990;7.370;2023-09-19T07:03:13;18.20;89.30
22379;DHT22;11357;49.990;7.370;2023-09-19T07:05:40;18.20;88.90
22379;DHT22;11357;49.990;7.370;2023-09-19T07:08:07;18.20;88.80
22379;DHT22;11357;49.990;7.370;2023-09-19T07:10:34;18.20;88.50
22379;DHT22;11357;49.990;7.370;2023-09-19T07:13:01;18.10;88.30
22379;DHT22;11357;49.990;7.370;2023-09-19T07:15:28;18.20;88.10
22379;DHT22;11357;49.990;7.370;2023-09-19T07:17:56;18.30;88.00
22379;DHT22;11357;49.990;7.370;2023-09-19T07:20:23;18.30;87.90
22379;DHT22;11357;49.990;7.370;2023-09-19T07:22:53;18.30;87.80
22379;DHT22;11357;49.990;7.370;2023-09-19T07:25:20;18.40;87.40
22379;DHT22;11357;49.990;7.370;2023-09-19T07:27:47;18.50;87.20
22379;DHT22;11357;49.990;7.370;2023-09-19T07:30:13;18.50;86.60
22379;DHT22;11357;49.990;7.370;2023-09-19T07:32:39;18.60;86.70
22379;DHT22;11357;49.990;7.370;2023-09-19T07:35:06;18.60;86.50
22379;DHT22;11357;49.990;7.370;2023-09-19T07:37:32;18.70;86.30
22379;DHT22;11357;49.990;7.370;2023-09-19T07:40:07;18.70;86.30
22379;DHT22;11357;49.990;7.370;2023-09-19T07:42:37;18.70;86.00
22379;DHT22;11357;49.990;7.370;2023-09-19T07:45:06;18.80;85.80
22379;DHT22;11357;49.990;7.370;2023-09-19T07:47:33;18.80;85.80
22379;DHT22;11357;49.990;7.370;2023-09-19T07:50:00;18.90;85.70
22379;DHT22;11357;49.990;7.370;2023-09-19T07:52:28;19.00;85.60
22379;DHT22;11357;49.990;7.370;2023-09-19T07:54:54;19.10;85.40
22379;DHT22;11357;49.990;7.370;2023-09-19T07:57:20;19.20;85.10
22379;DHT22;11357;49.990;7.370;2023-09-19T07:59:46;19.30;85.00
22379;DHT22;11357;49.990;7.370;2023-09-19T08:02:12;19.50;84.80
22379;DHT22;11357;49.990;7.370;2023-09-19T08:04:44;19.60;84.10
22379;DHT22;11357;49.990;7.370;2023-09-19T08:07:12;19.60;82.90
22379;DHT22;11357;49.990;7.370;2023-09-19T08:09:38;19.60;82.70
22379;DHT22;11357;49.990;7.370;2023-09-19T08:12:07;19.50;82.10
22379;DHT22;11357;49.990;7.370;2023-09-19T08:14:36;19.40;81.90
22379;DHT22;11357;49.990;7.370;2023-09-19T08:17:03;19.40;82.40
22379;DHT22;11357;49.990;7.370;2023-09-19T08:19:30;19.60;82.60
22379;DHT22;11357;49.990;7.370;2023-09-19T08:22:00;19.80;82.10
22379;DHT22;11357;49.990;7.370;2023-09-19T08:24:30;20.00;80.90
22379;DHT22;11357;49.990;7.370;2023-09-19T08:26:56;20.00;80.40
22379;DHT22;11357;49.990;7.370;2023-09-19T08:29:23;20.00;79.60
22379;DHT22;11357;49.990;7.370;2023-09-19T08:31:58;20.00;79.30
22379;DHT22;11357;49.990;7.370;2023-09-19T08:34:25;20.00;79.10
22379;DHT22;11357;49.990;7.370;2023-09-19T08:36:52;20.10;79.10
22379;DHT22;11357;49.990;7.370;2023-09-19T08:39:24;20.40;79.00
22379;DHT22;11357;49.990;7.370;2023-09-19T08:41:56;20.60;78.00
22379;DHT22;11357;49.990;7.370;2023-09-19T08:44:22;20.80;76.30
22379;DHT22;11357;49.990;7.370;2023-09-19T08:46:54;20.70;75.10
22379;DHT22;11357;49.990;7.370;2023-09-19T08:49:47;20.80;74.90
22379;DHT22;11357;49.990;7.370;2023-09-19T08:52:25;20.80;74.30
22379;DHT22;11357;49.990;7.370;2023-09-19T08:54:53;20.80;74.30
22379;DHT22;11357;49.990;7.370;2023-09-19T08:57:21;20.80;74.40
22379;DHT22;11357;49.990;7.370;2023-09-19T08:59:48;20.90;74.30
22379;DHT22;11357;49.990;7.370;2023-09-19T09:02:16;21.10;73.80
22379;DHT22;11357;49.990;7.370;2023-09-19T09:04:45;21.20;73.40
22379;DHT22;11357;49.990;7.370;2023-09-19T09:07:14;21.40;73.00
22379;DHT22;11357;49.990;7.370;2023-09-19T09:09:42;21.60;72.30
22379;DHT22;11357;49.990;7.370;2023-09-19T09:12:13;21.80;72.00
22379;DHT22;11357;49.990;7.370;2023-09-19T09:14:46;22.00;71.50
22379;DHT22;11357;49.990;7.370;2023-09-19T09:17:18;22.30;70.50
22379;DHT22;11357;49.990;7.370;2023-09-19T09:19:46;22.30;69.60
22379;DHT22;11357;49.990;7.370;2023-09-19T09:22:12;22.30;68.80
22379;DHT22;11357;49.990;7.370;2023-09-19T09:24:52;22.20;68.50
22379;DHT22;11357;49.990;7.370;2023-09-19T09:27:19;21.90;67.90
22379;DHT22;11357;49.990;7.370;2023-09-19T09:29:49;21.70;68.00
22379;DHT22;11357;49.990;7.370;2023-09-19T09:34:49;21.40;67.60
22379;DHT22;11357;49.990;7.370;2023-09-19T09:37:16;21.30;68.00
22379;DHT22;11357;49.990;7.370;2023-09-19T09:40:05;21.30;67.60
22379;DHT22;11357;49.990;7.370;2023-09-19T09:42:40;21.10;67.70
22379;DHT22;11357;49.990;7.370;2023-09-19T09:45:23;21.10;67.70
22379;DHT22;11357;49.990;7.370;2023-09-19T09:47:58;21.20;68.10
22379;DHT22;11357;49.990;7.370;2023-09-19T09:50:34;21.30;67.50
22379;DHT22;11357;49.990;7.370;2023-09-19T10:34:47;23.30;62.30
22379;DHT22;11357;49.990;7.370;2023-09-19T10:37:13;23.70;61.60
22379;DHT22;11357;49.990;7.370;2023-09-19T10:39:41;24.10;60.70
22379;DHT22;11357;49.990;7.370;2023-09-19T10:42:18;24.50;59.30
22379;DHT22;11357;49.990;7.370;2023-09-19T10:44:47;24.80;57.40
22379;DHT22;11357;49.990;7.370;2023-09-19T10:47:19;25.00;57.10
22379;DHT22;11357;49.990;7.370;2023-09-19T10:49:46;25.20;56.70
22379;DHT22;11357;49.990;7.370;2023-09-19T10:52:14;25.50;56.10
22379;DHT22;11357;49.990;7.370;2023-09-19T10:54:48;25.70;55.60
22379;DHT22;11357;49.990;7.370;2023-09-19T10:57:21;25.90;55.00
22379;DHT22;11357;49.990;7.370;2023-09-19T11:00:06;25.70;54.50
22379;DHT22;11357;49.990;7.370;2023-09-19T11:06:09;25.00;54.50
22379;DHT22;11357;49.990;7.370;2023-09-19T11:09:03;24.70;55.30
22379;DHT22;11357;49.990;7.370;2023-09-19T11:11:49;24.70;55.20
22379;DHT22;11357;49.990;7.370;2023-09-19T11:30:33;25.50;53.90
22379;DHT22;11357;49.990;7.370;2023-09-19T12:16:56;27.70;49.80
22379;DHT22;11357;49.990;7.370;2023-09-19T12:19:23;27.80;49.80
22379;DHT22;11357;49.990;7.370;2023-09-19T12:21:56;27.90;49.80
22379;DHT22;11357;49.990;7.370;2023-09-19T12:24:26;27.90;49.20
22379;DHT22;11357;49.990;7.370;2023-09-19T12:26:52;27.90;48.70
22379;DHT22;11357;49.990;7.370;2023-09-19T12:29:21;27.80;47.90
22379;DHT22;11357;49.990;7.370;2023-09-19T12:31:55;27.70;48.20
22379;DHT22;11357;49.990;7.370;2023-09-19T12:37:12;28.00;48.20
22379;DHT22;11357;49.990;7.370;2023-09-19T12:39:45;28.10;48.10
22379;DHT22;11357;49.990;7.370;2023-09-19T12:42:26;28.10;47.60
22379;DHT22;11357;49.990;7.370;2023-09-19T12:44:58;28.30;48.20
22379;DHT22;11357;49.990;7.370;2023-09-19T12:47:28;28.60;48.10
22379;DHT22;11357;49.990;7.370;2023-09-19T12:50:12;28.70;47.90
22379;DHT22;11357;49.990;7.370;2023-09-19T12:52:51;28.80;47.60
22379;DHT22;11357;49.990;7.370;2023-09-19T13:00:41;28.80;47.60
22379;DHT22;11357;49.990;7.370;2023-09-19T13:05:54;28.60;47.10
22379;DHT22;11357;49.990;7.370;2023-09-19T13:08:30;28.50;46.90
22379;DHT22;11357;49.990;7.370;2023-09-19T13:11:11;28.50;47.10
22379;DHT22;11357;49.990;7.370;2023-09-19T13:13:49;28.40;47.10
22379;DHT22;11357;49.990;7.370;2023-09-19T13:16:16;28.40;47.30
22379;DHT22;11357;49.990;7.370;2023-09-19T13:18:52;28.40;46.90
22379;DHT22;11357;49.990;7.370;2023-09-19T13:23:56;28.50;47.30
22379;DHT22;11357;49.990;7.370;2023-09-19T13:26:28;28.50;46.90
22379;DHT22;11357;49.990;7.370;2023-09-19T13:28:54;28.40;46.40
22379;DHT22;11357;49.990;7.370;2023-09-19T13:31:20;28.30;46.20
22379;DHT22;11357;49.990;7.370;2023-09-19T13:33:48;28.20;46.40
22379;DHT22;11357;49.990;7.370;2023-09-19T13:36:15;28.20;47.20
22379;DHT22;11357;49.990;7.370;2023-09-19T13:38:41;28.00;46.20
22379;DHT22;11357;49.990;7.370;2023-09-19T13:41:09;27.70;46.50
22379;DHT22;11357;49.990;7.370;2023-09-19T13:43:36;27.60;47.80
22379;DHT22;11357;49.990;7.370;2023-09-19T13:46:02;27.60;47.30
22379;DHT22;11357;49.990;7.370;2023-09-19T13:48:28;27.40;47.20
22379;DHT22;11357;49.990;7.370;2023-09-19T13:50:55;27.40;47.50
22379;DHT22;11357;49.990;7.370;2023-09-19T13:53:21;27.30;47.40
22379;DHT22;11357;49.990;7.370;2023-09-19T13:55:47;27.40;47.60
22379;DHT22;11357;49.990;7.370;2023-09-19T13:58:14;27.30;47.50
22379;DHT22;11357;49.990;7.370;2023-09-19T14:00:40;27.30;47.90
22379;DHT22;11357;49.990;7.370;2023-09-19T14:03:06;27.30;48.10
22379;DHT22;11357;49.990;7.370;2023-09-19T14:05:32;27.30;48.70
22379;DHT22;11357;49.990;7.370;2023-09-19T14:07:58;27.10;47.90
22379;DHT22;11357;49.990;7.370;2023-09-19T14:10:28;27.00;47.80
22379;DHT22;11357;49.990;7.370;2023-09-19T14:12:57;26.80;48.40
22379;DHT22;11357;49.990;7.370;2023-09-19T14:15:26;26.70;48.10
22379;DHT22;11357;49.990;7.370;2023-09-19T14:17:56;26.50;48.20
22379;DHT22;11357;49.990;7.370;2023-09-19T14:20:22;26.30;48.30
22379;DHT22;11357;49.990;7.370;2023-09-19T14:22:48;26.10;48.60
22379;DHT22;11357;49.990;7.370;2023-09-19T14:25:14;26.00;49.40
22379;DHT22;11357;49.990;7.370;2023-09-19T14:27:40;25.90;49.40
22379;DHT22;11357;49.990;7.370;2023-09-19T14:30:07;25.70;49.50
22379;DHT22;11357;49.990;7.370;2023-09-19T14:32:34;25.60;50.00
22379;DHT22;11357;49.990;7.370;2023-09-19T14:35:02;25.60;50.30
22379;DHT22;11357;49.990;7.370;2023-09-19T14:37:27;25.50;50.80
22379;DHT22;11357;49.990;7.370;2023-09-19T14:39:54;25.50;51.20
22379;DHT22;11357;49.990;7.370;2023-09-19T14:42:20;25.40;51.40
22379;DHT22;11357;49.990;7.370;2023-09-19T14:44:45;25.30;51.60
22379;DHT22;11357;49.990;7.370;2023-09-19T14:47:13;25.30;51.80
22379;DHT22;11357;49.990;7.370;2023-09-19T14:49:39;25.10;51.70
22379;DHT22;11357;49.990;7.370;2023-09-19T14:52:09;24.90;51.90
22379;DHT22;11357;49.990;7.370;2023-09-19T14:54:35;24.60;52.30
22379;DHT22;11357;49.990;7.370;2023-09-19T14:57:03;24.60;53.00
22379;DHT22;11357;49.990;7.370;2023-09-19T14:59:33;24.50;53.40
22379;DHT22;11357;49.990;7.370;2023-09-19T15:02:05;24.40;53.60
22379;DHT22;11357;49.990;7.370;2023-09-19T15:04:32;24.40;54.20
22379;DHT22;11357;49.990;7.370;2023-09-19T15:06:59;24.40;54.20
22379;DHT22;11357;49.990;7.370;2023-09-19T15:09:25;24.40;54.20
22379;DHT22;11357;49.990;7.370;2023-09-19T15:11:54;24.40;54.50
22379;DHT22;11357;49.990;7.370;2023-09-19T15:14:20;24.30;54.30
22379;DHT22;11357;49.990;7.370;2023-09-19T15:16:46;24.20;54.60
22379;DHT22;11357;49.990;7.370;2023-09-19T15:19:13;24.10;54.50
22379;DHT22;11357;49.990;7.370;2023-09-19T15:21:39;24.10;55.00
22379;DHT22;11357;49.990;7.370;2023-09-19T15:24:06;24.10;55.20
22379;DHT22;11357;49.990;7.370;2023-09-19T15:26:36;24.10;55.40
22379;DHT22;11357;49.990;7.370;2023-09-19T15:29:07;24.00;55.20
22379;DHT22;11357;49.990;7.370;2023-09-19T15:31:35;23.90;55.30
22379;DHT22;11357;49.990;7.370;2023-09-19T15:34:04;23.80;55.70
22379;DHT22;11357;49.990;7.370;2023-09-19T15:36:31;23.70;55.90
22379;DHT22;11357;49.990;7.370;2023-09-19T15:39:02;23.60;56.30
22379;DHT22;11357;49.990;7.370;2023-09-19T16:02:20;22.90;58.40
22379;DHT22;11357;49.990;7.370;2023-09-19T16:04:45;22.90;58.60
22379;DHT22;11357;49.990;7.370;2023-09-19T16:07:11;23.00;58.90
22379;DHT22;11357;49.990;7.370;2023-09-19T16:09:37;23.00;58.90
22379;DHT22;11357;49.990;7.370;2023-09-19T16:12:03;23.00;58.80
22379;DHT22;11357;49.990;7.370;2023-09-19T16:14:29;22.90;58.70
22379;DHT22;11357;49.990;7.370;2023-09-19T16:16:56;22.90;58.80
22379;DHT22;11357;49.990;7.370;2023-09-19T16:19:23;22.80;58.90
22379;DHT22;11357;49.990;7.370;2023-09-19T16:21:48;22.80;59.00
22379;DHT22;11357;49.990;7.370;2023-09-19T16:24:14;22.70;59.00
22379;DHT22;11357;49.990;7.370;2023-09-19T16:26:42;22.60;59.20
22379;DHT22;11357;49.990;7.370;2023-09-19T16:29:07;22.60;59.60
22379;DHT22;11357;49.990;7.370;2023-09-19T16:31:35;22.50;59.70
22379;DHT22;11357;49.990;7.370;2023-09-19T16:34:02;22.50;59.80
22379;DHT22;11357;49.990;7.370;2023-09-19T16:36:28;22.40;60.00
22379;DHT22;11357;49.990;7.370;2023-09-19T16:38:53;22.40;60.40
22379;DHT22;11357;49.990;7.370;2023-09-19T16:41:19;22.40;60.80
22379;DHT22;11357;49.990;7.370;2023-09-19T16:43:45;22.30;61.00
22379;DHT22;11357;49.990;7.370;2023-09-19T16:46:12;22.20;61.30
22379;DHT22;11357;49.990;7.370;2023-09-19T16:48:39;22.20;61.80
22379;DHT22;11357;49.990;7.370;2023-09-19T16:51:09;22.20;62.00
22379;DHT22;11357;49.990;7.370;2023-09-19T16:53:37;22.10;62.20
22379;DHT22;11357;49.990;7.370;2023-09-19T16:56:07;22.00;62.30
22379;DHT22;11357;49.990;7.370;2023-09-19T16:58:37;21.90;62.40
22379;DHT22;11357;49.990;7.370;2023-09-19T17:01:07;21.90;62.60
22379;DHT22;11357;49.990;7.370;2023-09-19T17:03:43;21.90;62.80
22379;DHT22;11357;49.990;7.370;2023-09-19T17:06:12;21.80;63.10
22379;DHT22;11357;49.990;7.370;2023-09-19T17:08:41;21.70;63.40
22379;DHT22;11357;49.990;7.370;2023-09-19T17:11:10;21.70;63.20
22379;DHT22;11357;49.990;7.370;2023-09-19T17:13:39;21.70;63.30
22379;DHT22;11357;49.990;7.370;2023-09-19T17:16:09;21.60;63.30
22379;DHT22;11357;49.990;7.370;2023-09-19T17:18:35;21.60;63.50
22379;DHT22;11357;49.990;7.370;2023-09-19T17:21:02;21.60;63.70
22379;DHT22;11357;49.990;7.370;2023-09-19T17:23:30;21.50;63.80
22379;DHT22;11357;49.990;7.370;2023-09-19T17:28:25;21.50;64.20
22379;DHT22;11357;49.990;7.370;2023-09-19T17:30:50;21.50;64.40
22379;DHT22;11357;49.990;7.370;2023-09-19T17:33:16;21.40;64.50
22379;DHT22;11357;49.990;7.370;2023-09-19T17:35:42;21.40;64.70
22379;DHT22;11357;49.990;7.370;2023-09-19T17:38:08;21.40;64.90
22379;DHT22;11357;49.990;7.370;2023-09-19T17:40:41;21.40;65.10
22379;DHT22;11357;49.990;7.370;2023-09-19T17:43:07;21.30;65.30
22379;DHT22;11357;49.990;7.370;2023-09-19T17:45:34;21.30;65.50
22379;DHT22;11357;49.990;7.370;2023-09-19T17:48:00;21.30;65.70
22379;DHT22;11357;49.990;7.370;2023-09-19T17:50:26;21.30;65.90
22379;DHT22;11357;49.990;7.370;2023-09-19T17:52:52;21.30;65.90
22379;DHT22;11357;49.990;7.370;2023-09-19T17:55:17;21.30;66.00
22379;DHT22;11357;49.990;7.370;2023-09-19T17:57:43;21.30;66.00
22379;DHT22;11357;49.990;7.370;2023-09-19T18:00:11;21.20;65.90
22379;DHT22;11357;49.990;7.370;2023-09-19T18:02:38;21.20;66.20
22379;DHT22;11357;49.990;7.370;2023-09-19T18:05:04;21.20;66.40
22379;DHT22;11357;49.990;7.370;2023-09-19T18:07:31;21.20;66.40
22379;DHT22;11357;49.990;7.370;2023-09-19T18:09:57;21.10;66.60
22379;DHT22;11357;49.990;7.370;2023-09-19T18:12:26;21.10;66.70
22379;DHT22;11357;49.990;7.370;2023-09-19T18:14:52;21.00;66.80
22379;DHT22;11357;49.990;7.370;2023-09-19T18:17:19;21.00;66.90
22379;DHT22;11357;49.990;7.370;2023-09-19T18:19:45;20.90;67.00
22379;DHT22;11357;49.990;7.370;2023-09-19T18:22:14;20.90;67.20